»·PEaware :: N5MW KSNA-KAVX

N5MW :: KSNA-KAVX

FLIGHT INFORMATION

Flight Status: Arrived
Operator: Privately registered:
United States
More flights under this callsign
Pilot: Max W. (2591)
Aircraft: SOCATA TBM-900
(TBM9)
More flights by this aircraft type
Origin: KSNA John Wayne-Orange Co
United States
Destination: KAVX Catalina
United States
More flights between these airports :: More routes between these airports
Route: +SXC
File this flight plan on PilotEdge
Remarks: STUDENT PILOT BE NICE PLEASE PLUS WHISKEY ON BOARD
Altitude:
(Current/Filed)
5,000ft
Speed:
(Current/Filed)
450kts
Departed: 11-Sep-18 07:22 PM
Arrived: 11-Sep-18 07:44 PM
Distance/Time
Traveled:
32nm/0:22
Distance/Time
To Go:
Arrived

Flight Plot

Page will automatically refresh every two minutes.


Map Options




Map Legend


Flown Route
Filed Route
Departure Airport
Arrival Airport
Navaid (VOR, NDB)
Fix

Horizontal Profiles

Position Reports

Time Latitude Longitude Heading Altitude Ground
Speed
11-Sep-18 19:02 33.675247 -117.871178 160 59ft 0kts
11-Sep-18 19:03 33.675247 -117.871178 160 59ft 0kts
11-Sep-18 19:04 33.675247 -117.871178 160 59ft 0kts
11-Sep-18 19:05 33.675247 -117.871178 160 59ft 0kts
11-Sep-18 19:06 33.675247 -117.871178 160 59ft 0kts
11-Sep-18 19:07 33.675247 -117.871178 160 59ft 0kts
11-Sep-18 19:08 33.675247 -117.871178 160 59ft 0kts
11-Sep-18 19:09 33.675247 -117.871178 160 59ft 0kts
11-Sep-18 19:10 33.675247 -117.871178 160 59ft 0kts
11-Sep-18 19:11 33.675247 -117.871178 160 59ft 0kts
11-Sep-18 19:12 33.675247 -117.871178 160 59ft 0kts
11-Sep-18 19:13 33.675247 -117.871178 160 59ft 0kts
11-Sep-18 19:14 33.675247 -117.871178 160 59ft 0kts
11-Sep-18 19:15 33.675247 -117.871178 160 59ft 0kts
11-Sep-18 19:16 33.674637 -117.871012 247 59ft 3kts
11-Sep-18 19:17 33.677768 -117.869012 27 59ft 17kts
11-Sep-18 19:18 33.679882 -117.867831 25 59ft 10kts
11-Sep-18 19:19 33.681292 -117.866517 129 59ft 0kts
11-Sep-18 19:20 33.681292 -117.866517 129 59ft 0kts
11-Sep-18 19:21 33.681292 -117.866517 129 59ft 0kts
11-Sep-18 19:22 33.681292 -117.866517 129 59ft 0kts
11-Sep-18 19:23 33.681292 -117.866516 129 59ft 0kts
11-Sep-18 19:24 33.670208 -117.872742 209 434ft 116kts
11-Sep-18 19:25 33.633753 -117.874690 152 2623ft 142kts
11-Sep-18 19:26 33.600153 -117.849845 151 4953ft 156kts
11-Sep-18 19:27 33.549029 -117.824012 198 4992ft 231kts
11-Sep-18 19:28 33.487618 -117.851682 201 4993ft 241kts
11-Sep-18 19:29 33.435252 -117.893636 263 4974ft 244kts
11-Sep-18 19:30 33.433762 -117.973451 259 4993ft 243kts
11-Sep-18 19:31 33.423395 -118.053114 259 4994ft 244kts
11-Sep-18 19:32 33.412907 -118.133397 259 5004ft 243kts
11-Sep-18 19:33 33.402527 -118.212480 260 5018ft 243kts
11-Sep-18 19:34 33.392257 -118.290381 260 5015ft 219kts
11-Sep-18 19:35 33.383363 -118.357480 260 5033ft 201kts
11-Sep-18 19:36 33.384765 -118.422567 293 5000ft 205kts
11-Sep-18 19:37 33.353599 -118.467007 206 4992ft 206kts
11-Sep-18 19:38 33.303119 -118.486091 142 4991ft 216kts
11-Sep-18 19:39 33.326788 -118.439181 11 5002ft 217kts
11-Sep-18 19:40 33.371153 -118.426168 11 4989ft 217kts
11-Sep-18 19:41 33.425014 -118.409916 12 4448ft 206kts
11-Sep-18 19:42 33.476378 -118.399943 325 3354ft 164kts
11-Sep-18 19:43 33.462900 -118.425337 155 2743ft 165kts
11-Sep-18 19:44 33.426637 -118.403007 165 2348ft 103kts
11-Sep-18 19:45 33.406660 -118.412980 231 1521ft 71kts
11-Sep-18 19:46 33.404048 -118.414964 356 1539ft 0kts
11-Sep-18 19:47 33.404048 -118.414964 356 1539ft 0kts
11-Sep-18 19:48 33.404048 -118.414964 356 1539ft 0kts
11-Sep-18 19:49 33.404048 -118.414964 356 1539ft 0kts
11-Sep-18 19:50 33.404048 -118.414964 356 1539ft 0kts
11-Sep-18 19:51 33.404048 -118.414964 356 1539ft 0kts

Navigation Log

Ident Type
Flight plan parsing failed, navigation log unavailable